Time;durP1;ratioP1;P1;durP2;ratioP2;P2;SDS_P1;SDS_P2;PMS_P1;PMS_P2;Temp;Humidity;BMP_temperature;BMP_pressure;BME280_temperature;BME280_humidity;BME280_pressure;Samples;Min_cycle;Max_cycle;Signal;HPM_P1;HPM_P2
2021/05/06 00:01:57;;;;;;;2.33;1.87;;;;;;;5.37;76.33;98418.00;5010808;28;39931;-74
2021/05/06 00:04:57;;;;;;;2.43;2.17;;;;;;;5.36;76.12;98421.56;4994464;28;41894;-74
2021/05/06 00:32:16;;;;;;;3.13;2.53;;;;;;;5.19;77.10;98382.16;5009765;28;41042;-74
2021/05/06 00:34:43;;;;;;;2.77;2.43;;;;;;;5.27;77.13;98392.28;4990254;28;40783;-74
2021/05/06 00:37:15;;;;;;;4.67;2.20;;;;;;;5.26;77.44;98385.31;4990545;28;42180;-74
2021/05/06 00:39:46;;;;;;;2.90;2.40;;;;;;;5.25;77.37;98392.34;4989618;28;43507;-74
2021/05/06 00:42:22;;;;;;;5.80;3.00;;;;;;;5.23;76.91;98388.94;4983872;28;41307;-74
2021/05/06 00:58:59;;;;;;;3.33;2.50;;;;;;;5.16;77.24;98405.91;4973328;28;40748;-76
2021/05/06 01:01:57;;;;;;;5.27;2.83;;;;;;;5.11;78.62;98397.41;4989185;28;42513;-74
2021/05/06 01:04:34;;;;;;;4.00;2.77;;;;;;;5.15;78.07;98396.34;4988820;28;42897;-74
2021/05/06 01:09:50;;;;;;;3.23;2.83;;;;;;;5.15;78.33;98396.34;5007064;28;41807;-74
2021/05/06 01:12:17;;;;;;;3.00;2.40;;;;;;;5.19;78.66;98381.31;5009753;28;41894;-75
2021/05/06 01:14:51;;;;;;;3.23;2.50;;;;;;;5.21;78.30;98379.44;5009509;28;42246;-74
2021/05/06 01:17:24;;;;;;;4.03;2.60;;;;;;;5.20;78.18;98383.84;5008067;28;39986;-74
2021/05/06 01:19:54;;;;;;;2.67;2.30;;;;;;;5.23;78.07;98377.59;5009585;28;42372;-75
2021/05/06 01:22:22;;;;;;;3.30;2.50;;;;;;;5.25;77.67;98379.22;5010256;28;42705;-74
2021/05/06 01:24:53;;;;;;;3.40;2.20;;;;;;;5.29;77.64;98383.41;5009388;28;42996;-74
2021/05/06 01:27:23;;;;;;;2.80;2.60;;;;;;;5.30;78.15;98371.97;5005182;28;39956;-74
2021/05/06 01:29:56;;;;;;;4.60;2.60;;;;;;;5.36;78.38;98365.56;4988895;28;42324;-74
2021/05/06 01:32:27;;;;;;;3.93;2.67;;;;;;;5.42;78.11;98373.16;4990149;28;42502;-75
2021/05/06 01:34:58;;;;;;;3.37;2.47;;;;;;;5.47;77.75;98375.53;5006677;28;42683;-74
2021/05/06 01:37:31;;;;;;;2.23;2.03;;;;;;;5.51;77.41;98377.09;5008432;28;41367;-74
2021/05/06 01:40:29;;;;;;;4.60;2.40;;;;;;;5.52;77.22;98378.78;5009185;28;42535;-75
2021/05/06 01:43:00;;;;;;;2.30;1.93;;;;;;;5.52;76.61;98384.03;4991932;28;41663;-74
2021/05/06 01:48:24;;;;;;;3.23;2.53;;;;;;;5.46;77.37;98365.94;5008921;28;40714;-75
2021/05/06 01:51:19;;;;;;;3.30;2.20;;;;;;;5.49;76.75;98368.44;5008465;28;41632;-74
2021/05/06 01:59:24;;;;;;;5.37;2.10;;;;;;;5.68;77.13;98363.97;4988955;28;40674;-75
2021/05/06 02:01:53;;;;;;;2.40;1.70;;;;;;;5.72;76.66;98355.84;4988986;28;41400;-74
2021/05/06 02:04:20;;;;;;;2.13;1.80;;;;;;;5.82;77.19;98358.00;4990097;28;42830;-75
2021/05/06 02:06:48;;;;;;;2.73;1.73;;;;;;;5.89;76.95;98362.91;5015854;28;42133;-74
2021/05/06 02:09:37;;;;;;;3.17;1.87;;;;;;;5.93;76.47;98351.31;5007544;28;39798;-74
2021/05/06 02:12:08;;;;;;;3.63;2.10;;;;;;;5.95;76.52;98357.31;5008337;28;41605;-74
2021/05/06 02:14:50;;;;;;;2.03;1.87;;;;;;;5.95;76.22;98349.44;5008638;28;41462;-74
2021/05/06 02:17:17;;;;;;;2.13;1.70;;;;;;;6.00;76.15;98355.31;5009674;28;42058;-74
2021/05/06 02:19:48;;;;;;;2.00;1.67;;;;;;;6.00;75.82;98350.06;4991861;28;39994;-74
2021/05/06 02:22:16;;;;;;;4.97;2.00;;;;;;;6.03;75.99;98351.69;5004042;28;42715;-74
2021/05/06 02:24:45;;;;;;;2.43;1.90;;;;;;;6.08;76.18;98349.63;4988277;28;43204;-74
2021/05/06 02:27:13;;;;;;;2.40;2.00;;;;;;;6.17;76.32;98357.06;5003080;28;42300;-74
2021/05/06 02:29:40;;;;;;;4.23;2.20;;;;;;;6.21;76.28;98347.22;5008094;28;41254;-75
2021/05/06 02:32:07;;;;;;;2.20;2.00;;;;;;;6.26;76.36;98337.31;4988515;28;41289;-74
2021/05/06 02:34:34;;;;;;;3.23;2.67;;;;;;;6.29;76.17;98340.66;4990123;28;42640;-75
2021/05/06 02:37:01;;;;;;;3.70;2.30;;;;;;;6.28;76.32;98332.84;4988316;28;41602;-75
2021/05/06 02:39:29;;;;;;;4.00;2.40;;;;;;;6.28;76.54;98328.41;4972523;28;39029;-74
2021/05/06 02:41:57;;;;;;;2.30;1.80;;;;;;;6.26;76.47;98332.06;5003354;28;41720;-75
2021/05/06 02:44:35;;;;;;;2.57;1.90;;;;;;;6.23;76.32;98329.59;5009336;28;42982;-74
2021/05/06 02:47:04;;;;;;;5.40;2.17;;;;;;;6.15;76.59;98331.78;5008248;28;42294;-75
2021/05/06 02:49:31;;;;;;;2.70;1.90;;;;;;;6.07;76.67;98325.13;5008951;28;39732;-75
2021/05/06 02:52:04;;;;;;;2.83;2.30;;;;;;;6.03;76.82;98328.88;5008441;28;41602;-75
2021/05/06 02:54:37;;;;;;;2.07;1.77;;;;;;;6.05;76.58;98329.66;5006874;28;42679;-74
2021/05/06 02:57:11;;;;;;;4.20;1.97;;;;;;;6.16;76.42;98321.19;5008333;28;42338;-75
2021/05/06 03:02:49;;;;;;;4.23;2.37;;;;;;;6.31;76.29;98316.88;4988127;28;42233;-74
2021/05/06 03:05:18;;;;;;;2.87;2.00;;;;;;;6.30;76.30;98312.56;5008759;28;43439;-75
2021/05/06 03:07:51;;;;;;;2.77;2.07;;;;;;;6.24;76.24;98318.16;5008171;28;43074;-74
2021/05/06 03:13:38;;;;;;;2.67;2.10;;;;;;;6.06;76.52;98307.66;4985530;28;40957;-75
2021/05/06 03:24:27;;;;;;;2.73;2.00;;;;;;;5.84;76.52;98298.34;4987688;28;42020;-75
2021/05/06 03:26:54;;;;;;;2.47;1.93;;;;;;;5.81;76.70;98309.03;5003627;28;43519;-74
2021/05/06 03:29:26;;;;;;;3.80;2.10;;;;;;;5.73;76.61;98298.91;5006860;28;42948;-75
2021/05/06 03:35:04;;;;;;;2.80;1.80;;;;;;;5.67;76.64;98309.75;5010602;28;41415;-75
2021/05/06 03:43:14;;;;;;;6.63;2.60;;;;;;;5.47;76.40;98296.75;5007306;28;39953;-74
2021/05/06 04:18:54;;;;;;;4.20;2.10;;;;;;;5.66;76.13;98305.41;5005391;28;42415;-75
2021/05/06 04:21:40;;;;;;;2.40;2.20;;;;;;;5.69;76.51;98299.97;4995643;28;42065;-75
2021/05/06 04:27:01;;;;;;;3.23;2.30;;;;;;;5.88;75.88;98318.28;5002165;28;40705;-75
2021/05/06 04:30:04;;;;;;;2.67;2.27;;;;;;;5.91;75.68;98313.75;5007439;28;41708;-75
2021/05/06 04:35:37;;;;;;;4.17;2.53;;;;;;;6.09;75.62;98302.25;4990788;28;41579;-75
2021/05/06 04:38:06;;;;;;;5.00;2.27;;;;;;;6.24;75.34;98300.59;4974315;28;39180;-75
2021/05/06 04:40:54;;;;;;;3.13;2.57;;;;;;;6.35;75.06;98292.13;5007496;28;42414;-75
2021/05/06 04:44:06;;;;;;;4.57;2.73;;;;;;;6.48;74.72;98298.41;5001834;28;42609;-75
2021/05/06 04:55:04;;;;;;;5.93;2.73;;;;;;;7.04;73.33;98312.81;4973729;28;42050;-75
2021/05/06 05:03:31;;;;;;;6.63;2.47;;;;;;;7.35;72.80;98301.34;5010898;28;41436;-75
2021/05/06 05:05:58;;;;;;;5.70;3.23;;;;;;;7.39;72.62;98306.38;5010755;28;43017;-75
2021/05/06 05:08:30;;;;;;;4.07;2.60;;;;;;;7.48;72.60;98313.72;5008527;28;41282;-75
2021/05/06 05:11:20;;;;;;;3.93;3.30;;;;;;;7.57;72.43;98313.19;5009711;28;41409;-75
2021/05/06 05:19:42;;;;;;;5.83;2.60;;;;;;;7.78;71.70;98318.13;5005596;28;42298;-75
2021/05/06 05:25:00;;;;;;;4.23;2.60;;;;;;;8.12;70.87;98299.31;4973877;28;41837;-75
2021/05/06 05:27:28;;;;;;;5.40;2.10;;;;;;;8.38;70.59;98310.09;4989473;28;42706;-75
2021/05/06 05:29:55;;;;;;;3.63;2.30;;;;;;;8.50;70.09;98309.31;4989559;28;42255;-75
2021/05/06 05:32:22;;;;;;;3.97;2.47;;;;;;;8.58;69.74;98315.81;4990740;28;40386;-75
2021/05/06 05:34:57;;;;;;;4.80;2.80;;;;;;;8.63;69.68;98311.09;5009020;28;42430;-75
2021/05/06 05:37:26;;;;;;;4.37;2.70;;;;;;;8.68;69.33;98309.94;4999804;28;41962;-75
2021/05/06 05:40:06;;;;;;;4.90;2.63;;;;;;;8.72;69.36;98309.66;5030774;28;42696;-75
2021/05/06 05:56:18;;;;;;;5.47;2.43;;;;;;;9.06;67.99;98307.47;5003356;28;42712;-77
2021/05/06 05:58:46;;;;;;;5.83;2.73;;;;;;;9.16;67.63;98309.41;4971673;28;42082;-76
2021/05/06 06:01:13;;;;;;;6.37;2.10;;;;;;;9.29;66.26;98309.44;5002389;28;43071;-75
2021/05/06 06:03:40;;;;;;;4.17;1.83;;;;;;;9.52;65.23;98321.16;4971016;28;39750;-76
2021/05/06 06:06:07;;;;;;;4.60;1.87;;;;;;;9.71;65.40;98318.97;4986880;28;41654;-76
2021/05/06 06:08:36;;;;;;;3.73;2.10;;;;;;;9.79;64.88;98314.00;4986775;28;42410;-76
2021/05/06 06:11:04;;;;;;;3.17;2.00;;;;;;;9.69;64.41;98321.72;5003373;28;42388;-76
2021/05/06 06:13:31;;;;;;;5.23;1.90;;;;;;;9.58;64.54;98321.59;5008565;28;40405;-76
2021/05/06 06:16:02;;;;;;;3.57;2.10;;;;;;;9.43;64.50;98317.31;5009642;28;41705;-76
2021/05/06 06:18:35;;;;;;;4.77;2.00;;;;;;;9.36;63.81;98331.91;5008760;28;41795;-75
2021/05/06 06:21:06;;;;;;;3.13;1.83;;;;;;;9.12;63.21;98322.94;5007805;28;42870;-76
2021/05/06 06:23:33;;;;;;;5.33;2.20;;;;;;;8.97;64.61;98322.97;4992544;28;39720;-75
2021/05/06 06:26:01;;;;;;;4.40;1.80;;;;;;;8.83;65.11;98328.28;5009062;28;42413;-75
2021/05/06 06:28:35;;;;;;;2.13;1.63;;;;;;;8.78;66.00;98325.09;4992447;28;42061;-76
2021/05/06 06:31:03;;;;;;;3.60;2.30;;;;;;;8.70;66.78;98319.47;5007507;28;41253;-76
2021/05/06 06:33:30;;;;;;;3.80;1.90;;;;;;;8.57;66.85;98321.16;5007790;28;39559;-75
2021/05/06 06:35:57;;;;;;;5.43;2.10;;;;;;;8.45;68.13;98329.84;5007484;28;40878;-77
2021/05/06 06:38:24;;;;;;;4.83;2.33;;;;;;;8.35;67.82;98329.59;5007976;28;43479;-76
2021/05/06 06:40:51;;;;;;;3.23;2.10;;;;;;;8.17;68.10;98318.34;4989047;28;42719;-77
2021/05/06 06:43:19;;;;;;;4.77;2.00;;;;;;;8.16;68.26;98335.09;4990595;28;39980;-76
2021/05/06 06:45:46;;;;;;;3.97;2.33;;;;;;;8.11;68.93;98324.00;4994169;28;42248;-76
2021/05/06 06:48:14;;;;;;;3.43;1.93;;;;;;;8.15;69.22;98330.78;5009727;28;43559;-76
2021/05/06 06:50:41;;;;;;;4.43;2.10;;;;;;;8.20;69.53;98333.13;4990873;28;41527;-74
2021/05/06 06:53:12;;;;;;;5.57;2.00;;;;;;;8.16;69.41;98334.28;5004783;28;40702;-73
2021/05/06 06:55:40;;;;;;;2.93;1.57;;;;;;;8.07;68.57;98333.03;5006103;28;41445;-75
2021/05/06 06:58:12;;;;;;;2.43;2.00;;;;;;;8.05;69.76;98326.13;4989891;28;42045;-76
2021/05/06 07:00:39;;;;;;;3.27;1.70;;;;;;;8.13;70.34;98322.13;5007280;28;42701;-74
2021/05/06 07:03:06;;;;;;;5.73;1.67;;;;;;;8.08;69.26;98334.72;5008739;28;40595;-73
2021/05/06 07:05:35;;;;;;;3.83;1.70;;;;;;;7.98;69.74;98333.59;5007693;28;42256;-73
2021/05/06 07:08:16;;;;;;;4.30;1.70;;;;;;;7.88;69.78;98337.72;5000782;28;43256;-74
2021/05/06 07:10:45;;;;;;;2.27;1.50;;;;;;;7.80;69.60;98339.94;4983286;28;42211;-73
2021/05/06 07:13:13;;;;;;;4.83;1.93;;;;;;;7.77;69.65;98332.25;4988233;28;39934;-72
2021/05/06 07:15:40;;;;;;;4.40;2.03;;;;;;;7.69;70.42;98332.69;4971098;28;41381;-73
2021/05/06 07:18:08;;;;;;;3.90;1.60;;;;;;;7.65;70.38;98335.63;5005540;28;42431;-71
2021/05/06 07:20:36;;;;;;;5.53;1.63;;;;;;;7.63;70.34;98332.22;5015902;28;42641;-74
2021/05/06 07:23:04;;;;;;;2.83;1.77;;;;;;;7.51;70.50;98329.38;4986824;28;40700;-73
2021/05/06 07:25:31;;;;;;;3.13;1.70;;;;;;;7.47;70.38;98338.38;4991396;28;41237;-72
2021/05/06 07:28:07;;;;;;;4.10;1.63;;;;;;;7.48;70.70;98337.44;5008268;28;42670;-72
2021/05/06 07:30:34;;;;;;;4.93;2.10;;;;;;;7.49;70.78;98341.78;5007704;28;42019;-73
2021/05/06 07:33:01;;;;;;;2.20;1.70;;;;;;;7.47;71.18;98341.00;5006200;28;39881;-72
2021/05/06 07:35:28;;;;;;;4.20;2.40;;;;;;;7.52;70.80;98338.97;5008199;28;42487;-72
2021/05/06 07:37:57;;;;;;;5.37;2.10;;;;;;;7.55;71.02;98330.84;5006316;28;42132;-72
2021/05/06 07:40:24;;;;;;;2.60;1.90;;;;;;;7.64;71.16;98334.75;4996477;28;42123;-73
2021/05/06 07:42:51;;;;;;;2.43;1.87;;;;;;;7.64;71.00;98336.53;4986218;28;41409;-72
2021/05/06 07:45:18;;;;;;;2.97;2.07;;;;;;;7.57;71.30;98320.22;4988304;28;43055;-74
2021/05/06 07:47:45;;;;;;;4.87;1.73;;;;;;;7.49;70.74;98319.84;5001267;28;43500;-71
2021/05/06 07:50:13;;;;;;;3.73;2.10;;;;;;;7.57;71.15;98326.34;5005994;28;42184;-72
2021/05/06 07:52:42;;;;;;;4.13;2.07;;;;;;;7.62;70.98;98319.97;5005917;28;40593;-72
2021/05/06 07:55:11;;;;;;;4.50;2.00;;;;;;;7.63;70.91;98321.66;5006886;28;40995;-72
2021/05/06 07:57:39;;;;;;;5.47;2.43;;;;;;;7.67;71.23;98318.75;4993154;28;43437;-73
2021/05/06 08:00:08;;;;;;;3.97;1.80;;;;;;;7.68;71.03;98320.44;5002529;28;43022;-73
2021/05/06 08:02:41;;;;;;;4.00;1.90;;;;;;;7.66;71.00;98321.50;5006893;28;40753;-72
2021/05/06 08:05:09;;;;;;;4.37;1.70;;;;;;;7.63;71.34;98321.66;5007807;28;42396;-73
2021/05/06 08:07:36;;;;;;;4.60;1.97;;;;;;;7.54;70.89;98323.06;4988926;28;42165;-75
2021/05/06 08:10:05;;;;;;;3.03;2.10;;;;;;;7.52;71.02;98315.25;5006691;28;42859;-74
2021/05/06 08:12:33;;;;;;;4.87;2.27;;;;;;;7.54;71.05;98323.06;5006664;28;39875;-74
2021/05/06 08:15:02;;;;;;;4.13;1.97;;;;;;;7.49;71.12;98325.13;5006433;28;41670;-73
2021/05/06 08:17:30;;;;;;;4.60;2.13;;;;;;;7.44;71.48;98322.72;4985455;28;42711;-73
2021/05/06 08:19:57;;;;;;;3.13;2.27;;;;;;;7.46;71.62;98328.78;5006105;28;43035;-73
2021/05/06 08:22:24;;;;;;;3.77;2.37;;;;;;;7.44;71.51;98325.38;5001175;28;40623;-74
2021/05/06 08:24:52;;;;;;;3.63;2.03;;;;;;;7.47;71.41;98333.09;5010783;28;41265;-72
2021/05/06 08:27:19;;;;;;;3.23;1.73;;;;;;;7.51;71.72;98318.81;5008635;28;43481;-73
2021/05/06 08:29:47;;;;;;;4.27;1.90;;;;;;;7.53;71.67;98322.22;5010234;28;43040;-73
2021/05/06 08:32:14;;;;;;;4.30;2.10;;;;;;;7.53;71.27;98322.22;5008968;28;40707;-73
2021/05/06 08:34:41;;;;;;;3.57;2.07;;;;;;;7.50;71.14;98322.41;5010005;28;41408;-74
2021/05/06 08:37:08;;;;;;;3.90;2.23;;;;;;;7.54;71.37;98323.88;4998171;28;43366;-73
2021/05/06 08:39:35;;;;;;;3.10;2.37;;;;;;;7.62;71.70;98319.97;4973347;28;41237;-73
2021/05/06 08:42:03;;;;;;;3.80;2.07;;;;;;;7.67;71.58;98324.00;4981688;28;39825;-73
2021/05/06 08:44:32;;;;;;;3.50;2.10;;;;;;;7.77;71.64;98319.06;5010011;28;41582;-73
2021/05/06 08:47:04;;;;;;;4.80;2.70;;;;;;;7.76;71.86;98306.84;4992531;28;42107;-74
2021/05/06 08:49:32;;;;;;;3.00;2.20;;;;;;;8.00;71.71;98322.97;5010427;28;42961;-73
2021/05/06 08:52:00;;;;;;;5.67;2.23;;;;;;;8.03;71.36;98313.06;5001058;28;40143;-73
2021/05/06 08:54:27;;;;;;;6.73;2.40;;;;;;;8.09;71.43;98315.31;4989007;28;41961;-71
2021/05/06 08:56:55;;;;;;;4.60;2.33;;;;;;;8.19;70.83;98319.09;4990480;28;43445;-73
2021/05/06 08:59:22;;;;;;;4.30;2.27;;;;;;;8.25;71.04;98321.38;4990406;28;42937;-73
2021/05/06 09:01:49;;;;;;;3.57;1.70;;;;;;;8.36;71.02;98317.25;5007277;28;40720;-73
2021/05/06 09:04:17;;;;;;;1.87;1.70;;;;;;;8.56;70.76;98324.75;5009041;28;41416;-74
2021/05/06 09:06:55;;;;;;;1.97;1.53;;;;;;;8.68;70.71;98318.69;5004380;28;43692;-74
2021/05/06 09:09:24;;;;;;;3.77;1.80;;;;;;;8.80;70.23;98328.47;4990167;28;42285;-73
2021/05/06 09:11:53;;;;;;;3.20;1.97;;;;;;;8.89;70.42;98327.91;4998144;28;39951;-74
2021/05/06 09:14:35;;;;;;;4.93;1.97;;;;;;;8.90;70.04;98319.03;4990297;28;42471;-72
2021/05/06 09:17:03;;;;;;;2.67;1.63;;;;;;;8.89;69.95;98322.63;4997817;28;42688;-74
2021/05/06 09:19:31;;;;;;;2.17;1.93;;;;;;;8.85;70.22;98318.47;4991691;28;42399;-72
2021/05/06 09:21:59;;;;;;;1.90;1.70;;;;;;;8.94;69.87;98325.81;5008915;28;41153;-73
2021/05/06 09:24:35;;;;;;;4.90;2.30;;;;;;;8.98;69.41;98319.41;5009595;28;41616;-72
2021/05/06 09:27:04;;;;;;;2.33;1.50;;;;;;;9.03;68.99;98321.72;5009128;28;43386;-74
2021/05/06 09:29:35;;;;;;;2.97;1.90;;;;;;;9.00;68.73;98324.59;5004975;28;43031;-71
2021/05/06 09:32:10;;;;;;;2.57;2.10;;;;;;;9.02;69.30;98316.56;4987999;28;39854;-72
2021/05/06 09:34:39;;;;;;;2.73;1.70;;;;;;;9.16;69.44;98313.84;4988010;28;42518;-72
2021/05/06 09:37:08;;;;;;;2.13;1.60;;;;;;;9.29;69.24;98310.31;4981577;28;42849;-73
2021/05/06 09:39:38;;;;;;;4.93;1.87;;;;;;;9.39;68.87;98305.28;4995863;28;42181;-73
2021/05/06 09:42:08;;;;;;;2.40;1.77;;;;;;;9.47;68.39;98300.31;4988377;28;40081;-73
2021/05/06 09:44:51;;;;;;;5.67;4.27;;;;;;;9.53;68.12;98297.25;4989713;28;42123;-74
2021/05/06 09:47:18;;;;;;;12.60;7.53;;;;;;;9.62;68.02;98285.22;4989964;28;42402;-73
2021/05/06 09:49:47;;;;;;;5.90;3.50;;;;;;;9.87;67.89;98292.34;4990303;28;42694;-72
2021/05/06 09:52:14;;;;;;;3.47;2.50;;;;;;;10.12;66.96;98288.84;4993847;28;39012;-72
2021/05/06 09:54:47;;;;;;;4.80;2.20;;;;;;;10.46;65.97;98284.69;4995879;28;42086;-72
2021/05/06 09:57:25;;;;;;;2.33;1.80;;;;;;;10.73;66.32;98280.06;4988009;28;43394;-73
2021/05/06 10:00:12;;;;;;;2.70;1.90;;;;;;;11.13;65.10;98278.84;4974715;28;41990;-75
2021/05/06 10:02:39;;;;;;;3.57;1.70;;;;;;;11.82;62.35;98289.59;4988453;28;40618;-72
2021/05/06 10:05:09;;;;;;;3.13;1.80;;;;;;;12.48;60.85;98294.13;4972420;28;40800;-72
2021/05/06 10:07:36;;;;;;;2.40;1.80;;;;;;;13.05;59.00;98300.19;5002350;28;43141;-75
2021/05/06 10:10:06;;;;;;;2.63;1.60;;;;;;;13.61;58.01;98299.03;4991054;28;41931;-72
2021/05/06 10:12:35;;;;;;;2.63;1.60;;;;;;;13.93;56.10;98308.81;4990043;28;40746;-73
2021/05/06 10:15:05;;;;;;;2.90;1.60;;;;;;;14.31;55.42;98313.50;4988607;28;42212;-72
2021/05/06 10:17:32;;;;;;;2.80;1.60;;;;;;;14.26;56.02;98299.72;5001899;28;42947;-73
2021/05/06 10:20:00;;;;;;;2.10;1.70;;;;;;;14.00;55.41;98292.16;4972790;28;41653;-73
2021/05/06 10:22:29;;;;;;;2.93;1.40;;;;;;;13.75;55.72;98299.69;4999808;28;40656;-71
2021/05/06 10:24:58;;;;;;;3.33;1.50;;;;;;;13.44;56.40;98290.78;5000647;28;41680;-74
2021/05/06 10:27:27;;;;;;;3.70;1.70;;;;;;;13.34;56.00;98289.88;4987920;28;20242;-73
2021/05/06 10:29:56;;;;;;;3.20;1.80;;;;;;;13.35;55.89;98296.88;4988525;28;42180;-73
2021/05/06 10:32:26;;;;;;;3.03;1.90;;;;;;;13.17;56.55;98283.28;5001231;28;39868;-73
2021/05/06 10:34:55;;;;;;;2.70;1.63;;;;;;;13.13;56.77;98282.63;5005672;28;41780;-72
2021/05/06 10:37:27;;;;;;;4.53;1.63;;;;;;;13.14;56.65;98276.38;5005332;28;42736;-75
2021/05/06 10:39:55;;;;;;;2.53;1.60;;;;;;;13.25;56.91;98270.19;4991888;28;41560;-75
2021/05/06 10:42:34;;;;;;;2.70;2.07;;;;;;;13.32;56.13;98271.38;5007473;28;40029;-75
2021/05/06 10:45:29;;;;;;;3.03;1.77;;;;;;;13.19;55.20;98268.88;4976384;28;41995;-74
2021/05/06 10:47:57;;;;;;;3.03;2.00;;;;;;;13.19;55.38;98270.69;4998075;28;41681;-75
2021/05/06 10:50:32;;;;;;;2.07;1.80;;;;;;;13.20;56.57;98251.13;4987252;28;42063;-76
2021/05/06 10:53:00;;;;;;;3.27;1.93;;;;;;;13.34;56.35;98260.63;4987842;28;40408;-75
2021/05/06 10:55:48;;;;;;;2.13;1.60;;;;;;;13.28;54.64;98269.94;5004798;28;41448;-75
2021/05/06 10:58:43;;;;;;;2.20;2.00;;;;;;;13.15;53.63;98280.72;4987603;28;43118;-74
2021/05/06 11:01:21;;;;;;;2.33;1.80;;;;;;;13.14;55.98;98264.88;4975645;28;42064;-75
2021/05/06 11:04:05;;;;;;;3.10;2.73;;;;;;;13.25;56.28;98239.13;5006167;28;40843;-75
2021/05/06 11:06:38;;;;;;;3.47;2.23;;;;;;;13.46;56.99;98235.66;5006468;28;41730;-74
2021/05/06 11:09:42;;;;;;;4.20;2.43;;;;;;;13.79;56.10;98238.09;5007597;28;42776;-74
2021/05/06 11:12:40;;;;;;;3.33;2.00;;;;;;;14.07;55.57;98235.75;5005156;28;42993;-74
2021/05/06 11:15:33;;;;;;;2.47;1.90;;;;;;;14.26;54.62;98228.66;4947425;28;40314;-75
2021/05/06 11:18:02;;;;;;;2.70;2.30;;;;;;;14.39;53.46;98231.09;4985656;28;42050;-75
2021/05/06 11:20:57;;;;;;;3.33;2.60;;;;;;;14.67;53.97;98218.88;4991215;28;42700;-74
2021/05/06 11:23:27;;;;;;;3.13;2.27;;;;;;;15.20;53.77;98210.53;5007816;28;42346;-74
2021/05/06 11:26:06;;;;;;;2.60;2.23;;;;;;;15.45;53.47;98237.44;5006968;28;39822;-74
2021/05/06 11:28:49;;;;;;;3.33;2.03;;;;;;;15.70;51.77;98246.72;5007149;28;41016;-72
2021/05/06 11:31:36;;;;;;;2.43;2.13;;;;;;;16.38;50.66;98238.53;4987099;28;42753;-74
2021/05/06 11:34:38;;;;;;;3.10;2.40;;;;;;;16.99;49.78;98219.22;4987106;28;41921;-73
2021/05/06 11:37:26;;;;;;;3.80;2.40;;;;;;;17.74;47.89;98218.75;4998778;28;40700;-73
2021/05/06 11:40:01;;;;;;;3.20;2.50;;;;;;;18.14;47.27;98217.34;5008139;28;41651;-79
2021/05/06 11:42:36;;;;;;;2.43;2.00;;;;;;;18.23;45.23;98224.41;5007994;28;43494;-76
2021/05/06 11:45:14;;;;;;;2.63;2.03;;;;;;;17.95;45.73;98213.00;4999569;28;42944;-75
2021/05/06 11:47:42;;;;;;;4.07;2.30;;;;;;;17.80;46.53;98209.25;4988184;28;40701;-76
2021/05/06 11:50:31;;;;;;;2.90;2.63;;;;;;;17.63;47.45;98194.03;4986965;28;41570;-76
2021/05/06 11:53:00;;;;;;;2.97;2.30;;;;;;;17.55;46.94;98202.84;5003608;28;42654;-76
2021/05/06 11:55:30;;;;;;;8.43;7.30;;;;;;;17.30;46.63;98209.84;5009892;28;41865;-75
2021/05/06 11:57:58;;;;;;;4.80;3.60;;;;;;;16.98;46.93;98196.13;4991233;28;39994;-76
2021/05/06 12:00:28;;;;;;;5.30;2.63;;;;;;;16.60;46.64;98208.72;4989709;28;42474;-75
2021/05/06 12:03:01;;;;;;;3.07;2.33;;;;;;;16.07;48.27;98188.03;4991084;28;42655;-74
2021/05/06 12:05:47;;;;;;;3.17;2.23;;;;;;;15.88;49.83;98179.25;4986807;28;42945;-74
2021/05/06 12:08:15;;;;;;;4.20;2.23;;;;;;;15.70;49.14;98180.00;5024361;28;38737;-74
2021/05/06 12:10:42;;;;;;;4.37;2.80;;;;;;;15.52;49.69;98162.19;5003482;28;40631;-74
2021/05/06 12:13:10;;;;;;;4.13;2.27;;;;;;;15.41;49.86;98155.19;4991044;28;42305;-75
2021/05/06 12:15:38;;;;;;;3.00;2.70;;;;;;;15.26;50.06;98138.78;4990043;28;42506;-72
2021/05/06 12:18:30;;;;;;;4.17;2.40;;;;;;;15.46;50.53;98132.41;4989602;28;39699;-75
2021/05/06 12:21:00;;;;;;;4.77;2.53;;;;;;;15.69;51.83;98116.09;4955790;28;40960;-75
2021/05/06 12:23:27;;;;;;;2.97;2.30;;;;;;;15.84;51.21;98117.28;4992365;28;42804;-73
2021/05/06 12:25:54;;;;;;;2.80;2.40;;;;;;;15.80;50.86;98119.44;5010134;28;41287;-76
2021/05/06 12:28:25;;;;;;;3.90;2.20;;;;;;;15.82;50.90;98137.97;4987274;28;41145;-73
2021/05/06 12:31:01;;;;;;;3.03;1.97;;;;;;;15.68;49.90;98135.75;5005439;28;41817;-76
2021/05/06 12:33:30;;;;;;;4.10;2.40;;;;;;;15.54;50.08;98138.88;5008949;28;42764;-75
2021/05/06 12:35:58;;;;;;;5.37;2.73;;;;;;;15.42;49.84;98131.03;4988410;28;42308;-76
2021/05/06 12:38:25;;;;;;;3.83;2.03;;;;;;;15.37;49.61;98137.75;4989910;28;38491;-76
2021/05/06 12:40:54;;;;;;;3.27;2.20;;;;;;;15.37;50.12;98124.44;5008073;28;42395;-75
2021/05/06 12:43:27;;;;;;;3.60;2.50;;;;;;;15.42;50.70;98120.34;5007916;28;43678;-73
2021/05/06 12:46:05;;;;;;;3.57;2.27;;;;;;;15.38;49.81;98126.09;5008547;28;42742;-75
2021/05/06 12:48:54;;;;;;;3.60;2.40;;;;;;;15.25;49.47;98117.56;5009056;28;40902;-74
2021/05/06 12:51:28;;;;;;;3.47;2.13;;;;;;;15.16;49.81;98105.94;5008171;28;42539;-75
2021/05/06 12:54:16;;;;;;;5.53;2.20;;;;;;;14.91;49.85;98093.19;4990298;28;42434;-73
2021/05/06 12:56:44;;;;;;;4.40;1.97;;;;;;;14.83;50.50;98095.75;4972960;28;43919;-75
2021/05/06 12:59:26;;;;;;;3.10;2.57;;;;;;;14.53;50.38;98062.91;4978392;28;40468;-75
2021/05/06 13:02:07;;;;;;;4.23;2.27;;;;;;;14.54;50.29;98077.91;4991141;28;42233;-75
2021/05/06 13:04:42;;;;;;;3.87;2.33;;;;;;;14.42;50.65;98070.19;4990642;28;41026;-75
2021/05/06 13:07:10;;;;;;;3.60;2.67;;;;;;;14.34;50.84;98070.88;4992030;28;41919;-75
2021/05/06 13:09:42;;;;;;;4.43;2.40;;;;;;;14.29;51.90;98071.28;4970936;28;39201;-76
2021/05/06 13:12:16;;;;;;;4.70;2.20;;;;;;;14.18;51.84;98073.22;4988416;28;42438;-73
2021/05/06 13:14:51;;;;;;;3.63;2.23;;;;;;;14.00;51.98;98070.38;4988550;28;44258;-74
2021/05/06 13:17:27;;;;;;;5.20;2.77;;;;;;;13.83;51.70;98069.22;4994868;28;41931;-74
2021/05/06 13:19:56;;;;;;;4.03;2.33;;;;;;;13.76;52.21;98057.41;5006564;28;40650;-74
2021/05/06 13:22:24;;;;;;;6.57;2.50;;;;;;;13.69;52.22;98066.91;4991016;28;41025;-75
2021/05/06 13:24:52;;;;;;;4.60;2.60;;;;;;;13.55;52.49;98064.63;5006774;28;43528;-74
2021/05/06 13:27:22;;;;;;;3.13;2.50;;;;;;;13.36;53.13;98045.91;5008005;28;42125;-75
2021/05/06 13:29:56;;;;;;;3.57;2.27;;;;;;;13.19;54.00;98016.31;4992400;28;39692;-76
2021/05/06 13:32:32;;;;;;;2.73;2.13;;;;;;;13.18;54.77;98029.75;4991710;28;41650;-76
2021/05/06 13:35:00;;;;;;;3.60;2.77;;;;;;;12.96;55.45;98025.41;4992186;28;43248;-76
2021/05/06 13:37:37;;;;;;;5.57;3.10;;;;;;;12.80;56.08;98031.16;4972957;28;43484;-76
2021/05/06 13:40:06;;;;;;;7.87;5.10;;;;;;;12.64;57.18;98019.28;4973494;28;42345;-75
2021/05/06 13:42:37;;;;;;;5.17;3.50;;;;;;;12.49;58.59;98003.66;5008870;28;41188;-75
2021/05/06 13:45:10;;;;;;;5.90;3.20;;;;;;;12.30;58.81;97982.28;5007844;28;42729;-75
2021/05/06 13:47:38;;;;;;;3.93;3.20;;;;;;;12.39;58.98;97978.84;5007727;28;42896;-75
2021/05/06 13:50:06;;;;;;;4.57;3.60;;;;;;;12.43;59.63;97977.66;5008214;28;40991;-75
2021/05/06 13:52:36;;;;;;;4.80;3.47;;;;;;;12.42;60.34;97978.63;4991002;28;43520;-74
2021/05/06 13:55:06;;;;;;;4.10;3.70;;;;;;;12.04;60.20;97936.69;4987121;28;42669;-75
2021/05/06 13:57:33;;;;;;;4.97;4.03;;;;;;;12.17;60.75;97952.44;4988975;28;41500;-72
2021/05/06 14:00:01;;;;;;;4.50;3.80;;;;;;;12.16;61.90;97956.91;4989444;28;40310;-75
2021/05/06 14:02:28;;;;;;;5.87;4.17;;;;;;;12.22;61.85;97955.56;4987140;28;41514;-74
2021/05/06 14:05:10;;;;;;;4.57;3.93;;;;;;;12.17;61.78;97958.56;4988276;28;42030;-75
2021/05/06 14:07:37;;;;;;;6.53;4.10;;;;;;;12.13;62.43;97951.00;4987231;28;42574;-77
2021/05/06 14:10:05;;;;;;;8.50;4.47;;;;;;;11.96;62.57;97943.59;4988834;28;40850;-76
2021/05/06 14:12:32;;;;;;;11.93;8.87;;;;;;;11.83;62.44;97949.06;4989274;28;41793;-74
2021/05/06 14:14:59;;;;;;;7.20;6.17;;;;;;;11.68;62.54;97935.22;4991734;28;42184;-74
2021/05/06 14:17:26;;;;;;;6.37;5.37;;;;;;;11.69;63.00;97941.38;5006098;28;41173;-76
2021/05/06 14:19:53;;;;;;;7.17;4.73;;;;;;;11.63;63.77;97944.50;5007840;28;39908;-75
2021/05/06 14:22:23;;;;;;;6.13;3.57;;;;;;;11.58;64.05;97947.56;4996582;28;41104;-73
2021/05/06 14:24:50;;;;;;;6.70;3.90;;;;;;;11.51;64.57;97943.69;4990031;28;42417;-74
2021/05/06 14:27:17;;;;;;;4.83;3.53;;;;;;;11.42;64.95;97933.84;4999795;28;43040;-75
2021/05/06 14:29:44;;;;;;;4.80;4.00;;;;;;;11.36;64.91;97923.75;5007495;28;40464;-74
2021/05/06 14:32:11;;;;;;;5.63;3.77;;;;;;;11.27;65.57;97919.16;4987555;28;41725;-74